Thunder radar more information blitzortung!


Radar de pluja more information rain snow radar


Visita la nostra xarxa de llocs de meteo:

Template documentation
and downloads

And another site



No particular awareness of the weather is required.    There are no Weather-warnings

Pagina Historial Weather Underground text

Diari Resum Juny 9, 2017 Unitats:  Mètric    Imperial   Tant
« Previous Dia
SegĂźent Dia »
Diari Setmana Mensual Anual Personalitzada
  Maxima: Minima: Media:
Temperatura: 30.1 °C 16.4 °C 23.4 °C
Punt de rosada: 18.3 °C 12.6 °C 15.4 °C
Humitat: 90 % 42 % 63 %
Wind Speed: 20.4 km/h 0.0 km/h 5.6 km/h
RĂ fegues de vent: 20.4 km/h - -
Vent:- - SSE
Pression baro: 1018.8 hPa 1013.8 hPa -
Precipitacions: 0.0 mm    
Historical Graphs
 
 
Dades de taula per Juny 9, 2017
Temps Temperatura Punt de rosada Pression baro Vent Wind Speed RĂ fegues de vent Humitat Rainfall Rate (Hourly)
00:01 18.4 °C 14.5 °C 1015.8 hPa SW 5.6 km/h 5.6 km/h 78 % 0.0 mm
00:05 17.1 °C 14.0 °C 1015.8 hPa WSW 3.2 km/h 3.2 km/h 82 % 0.0 mm
00:06 18.4 °C 14.7 °C 1015.8 hPa SW 3.7 km/h 4.7 km/h 79 % 0.0 mm
00:11 18.4 °C 14.7 °C 1015.8 hPa SW 3.9 km/h 3.9 km/h 79 % 0.0 mm
00:15 17.0 °C 13.9 °C 1015.8 hPa Calm   4.8 km/h 82 % 0.0 mm
00:16 18.4 °C 14.7 °C 1015.8 hPa WSW 3.7 km/h 3.7 km/h 79 % 0.0 mm
00:21 18.4 °C 14.7 °C 1015.8 hPa West 3.7 km/h 3.7 km/h 79 % 0.0 mm
00:25 17.2 °C 14.1 °C 1015.8 hPa WNW 3.2 km/h 6.4 km/h 82 % 0.0 mm
00:26 18.4 °C 14.9 °C 1015.8 hPa WSW 3.7 km/h 3.7 km/h 80 % 0.0 mm
00:35 17.3 °C 14.0 °C 1015.8 hPa SE 3.2 km/h 6.4 km/h 81 % 0.0 mm
00:45 17.1 °C 14.0 °C 1015.8 hPa South 3.2 km/h 6.4 km/h 82 % 0.0 mm
00:55 16.9 °C 14.2 °C 1015.8 hPa SE 1.6 km/h 3.2 km/h 84 % 0.0 mm
01:05 16.8 °C 14.3 °C 1014.8 hPa ESE 3.2 km/h 3.2 km/h 85 % 0.0 mm
01:15 16.7 °C 14.0 °C 1014.8 hPa East 4.8 km/h 9.7 km/h 84 % 0.0 mm
01:25 16.7 °C 14.3 °C 1015.8 hPa NE 1.6 km/h 6.4 km/h 86 % 0.0 mm
01:45 16.7 °C 14.3 °C 1014.8 hPa ENE 3.2 km/h 6.4 km/h 86 % 0.0 mm
01:55 16.7 °C 14.7 °C 1016.8 hPa Calm   4.8 km/h 88 % 0.0 mm
02:05 16.7 °C 14.7 °C 1015.8 hPa South 1.6 km/h 3.2 km/h 88 % 0.0 mm
02:15 17.0 °C 14.8 °C 1015.8 hPa North 3.2 km/h 8.0 km/h 87 % 0.0 mm
02:25 16.9 °C 15.1 °C 1017.8 hPa NW 3.2 km/h 3.2 km/h 89 % 0.0 mm
02:35 16.9 °C 15.1 °C 1015.8 hPa SSW 3.2 km/h 4.8 km/h 89 % 0.0 mm
02:45 16.8 °C 14.8 °C 1015.8 hPa SSW 4.8 km/h 6.4 km/h 88 % 0.0 mm
02:55 16.7 °C 14.7 °C 1016.8 hPa SW 3.2 km/h 6.4 km/h 88 % 0.0 mm
03:05 16.7 °C 15.1 °C 1016.8 hPa WSW 3.2 km/h 4.8 km/h 90 % 0.0 mm
03:15 16.9 °C 15.2 °C 1016.8 hPa North 4.8 km/h 4.8 km/h 90 % 0.0 mm
03:25 16.9 °C 15.2 °C 1017.8 hPa NNE 3.2 km/h 4.8 km/h 90 % 0.0 mm
03:35 17.0 °C 15.3 °C 1017.8 hPa NE 1.6 km/h 3.2 km/h 90 % 0.0 mm
03:45 17.4 °C 15.7 °C 1017.8 hPa NNE 3.2 km/h 4.8 km/h 90 % 0.0 mm
03:55 17.9 °C 16.2 °C 1017.8 hPa ENE 1.6 km/h 3.2 km/h 90 % 0.0 mm
04:05 18.0 °C 16.2 °C 1017.8 hPa SSE 1.6 km/h 4.8 km/h 89 % 0.0 mm
04:15 17.9 °C 16.1 °C 1017.8 hPa SW 3.2 km/h 4.8 km/h 89 % 0.0 mm
04:25 18.8 °C 16.9 °C 1016.8 hPa Calm   3.2 km/h 89 % 0.0 mm
04:35 19.6 °C 17.6 °C 1017.8 hPa SSW 1.6 km/h 4.8 km/h 88 % 0.0 mm
04:45 19.8 °C 17.2 °C 1017.8 hPa SSW 1.6 km/h 3.2 km/h 85 % 0.0 mm
09:47 20.0 °C 17.4 °C 1017.8 hPa SSE 3.7 km/h 3.7 km/h 85 % 0.0 mm
09:52 20.1 °C 17.3 °C 1017.8 hPa Calm     84 % 0.0 mm
09:57 20.3 °C 17.3 °C 1017.8 hPa South 1.9 km/h   83 % 0.0 mm
10:02 20.8 °C 17.8 °C 1017.8 hPa South 5.6 km/h 5.6 km/h 83 % 0.0 mm
10:03 20.7 °C 17.5 °C 1017.8 hPa SSE 4.2 km/h 4.2 km/h 82 % 0.0 mm
10:08 20.9 °C 17.5 °C 1017.8 hPa ESE 3.7 km/h 3.7 km/h 81 % 0.0 mm
10:13 21.4 °C 17.6 °C 1017.8 hPa ENE 1.9 km/h   79 % 0.0 mm
10:18 21.9 °C 17.9 °C 1017.8 hPa SW 3.7 km/h 3.7 km/h 78 % 0.0 mm
10:23 22.1 °C 17.9 °C 1017.8 hPa SSW 3.7 km/h 3.7 km/h 77 % 0.0 mm
10:28 22.1 °C 17.4 °C 1017.8 hPa East 5.6 km/h 5.6 km/h 75 % 0.0 mm
10:33 22.5 °C 17.8 °C 1017.8 hPa WSW 3.7 km/h 3.7 km/h 75 % 0.0 mm
10:38 22.9 °C 18.2 °C 1017.8 hPa ESE 3.7 km/h 3.7 km/h 75 % 0.0 mm
10:43 23.4 °C 18.1 °C 1017.8 hPa SSW 7.4 km/h 7.4 km/h 72 % 0.0 mm
10:48 23.7 °C 18.3 °C 1017.8 hPa ESE 3.7 km/h 3.7 km/h 72 % 0.0 mm
10:53 23.7 °C 18.1 °C 1017.8 hPa ESE 4.7 km/h 4.7 km/h 71 % 0.0 mm
10:59 23.8 °C 18.0 °C 1017.8 hPa East 3.7 km/h 3.7 km/h 70 % 0.0 mm
11:04 24.0 °C 17.9 °C 1017.8 hPa SW 2.6 km/h 2.6 km/h 69 % 0.0 mm
11:09 24.4 °C 18.1 °C 1017.8 hPa ENE 5.8 km/h 5.8 km/h 68 % 0.0 mm
11:14 23.9 °C 17.4 °C 1017.8 hPa South 9.3 km/h 9.3 km/h 67 % 0.0 mm
11:19 24.7 °C 17.7 °C 1017.8 hPa SE 3.7 km/h 3.7 km/h 65 % 0.0 mm
11:24 25.3 °C 18.0 °C 1017.8 hPa SE 5.3 km/h 5.3 km/h 64 % 0.0 mm
11:29 24.9 °C 17.9 °C 1017.8 hPa SW 7.4 km/h 7.4 km/h 65 % 0.0 mm
11:34 25.0 °C 16.9 °C 1017.8 hPa SW 7.4 km/h 7.4 km/h 61 % 0.0 mm
11:37 25.3 °C 17.0 °C 1017.8 hPa SW 3.7 km/h 3.7 km/h 60 % 0.0 mm
11:42 25.6 °C 17.3 °C 1017.8 hPa SSW 6.1 km/h 6.1 km/h 60 % 0.0 mm
11:47 25.5 °C 17.2 °C 1017.8 hPa SSW 11.1 km/h 11.1 km/h 60 % 0.0 mm
11:52 25.6 °C 16.7 °C 1017.8 hPa SW 9.3 km/h 9.3 km/h 58 % 0.0 mm
11:57 25.7 °C 16.6 °C 1017.8 hPa SSW 9.3 km/h 9.3 km/h 57 % 0.0 mm
12:02 25.4 °C 16.0 °C 1016.8 hPa SSW 9.3 km/h 9.3 km/h 56 % 0.0 mm
12:07 25.3 °C 15.9 °C 1016.8 hPa SW 11.1 km/h 11.1 km/h 56 % 0.0 mm
12:12 25.4 °C 16.0 °C 1016.8 hPa SW 11.1 km/h 11.1 km/h 56 % 0.0 mm
12:17 25.6 °C 15.9 °C 1017.8 hPa SSW 9.3 km/h 9.3 km/h 55 % 0.0 mm
12:22 25.9 °C 16.2 °C 1017.8 hPa SW 5.6 km/h 5.6 km/h 55 % 0.0 mm
12:27 26.5 °C 16.7 °C 1017.8 hPa SSW 5.6 km/h 5.6 km/h 55 % 0.0 mm
12:32 26.5 °C 16.7 °C 1015.8 hPa SW 5.6 km/h 5.6 km/h 55 % 0.0 mm
12:37 27.2 °C 17.1 °C 1015.8 hPa WSW 7.4 km/h 7.4 km/h 54 % 0.0 mm
12:42 27.8 °C 17.3 °C 1015.8 hPa SSW 2.6 km/h 2.6 km/h 53 % 0.0 mm
12:47 27.2 °C 16.5 °C 1015.8 hPa West 9.3 km/h 9.3 km/h 52 % 0.0 mm
12:52 27.5 °C 16.8 °C 1015.8 hPa SW 5.0 km/h 5.0 km/h 52 % 0.0 mm
12:57 27.5 °C 16.4 °C 1015.8 hPa SW 5.6 km/h 5.6 km/h 51 % 0.0 mm
13:02 27.8 °C 16.7 °C 1016.8 hPa SW 7.4 km/h 7.4 km/h 51 % 0.0 mm
13:07 27.9 °C 16.5 °C 1016.8 hPa WSW 9.3 km/h 9.3 km/h 50 % 0.0 mm
13:12 28.1 °C 16.7 °C 1016.8 hPa SW 7.4 km/h 7.4 km/h 50 % 0.0 mm
13:17 28.0 °C 16.3 °C 1015.8 hPa West 3.7 km/h 3.7 km/h 49 % 0.0 mm
13:22 28.0 °C 15.9 °C 1015.8 hPa SSW 9.3 km/h 9.3 km/h 48 % 0.0 mm
13:27 28.1 °C 16.1 °C 1015.8 hPa ENE 5.6 km/h 5.6 km/h 48 % 0.0 mm
13:32 28.3 °C 15.9 °C 1015.8 hPa SW 7.4 km/h 7.4 km/h 47 % 0.0 mm
13:37 28.3 °C 16.2 °C 1015.8 hPa SW 5.6 km/h 5.6 km/h 48 % 0.0 mm
13:42 28.9 °C 16.4 °C 1015.8 hPa WSW 3.9 km/h 3.9 km/h 47 % 0.0 mm
13:47 28.8 °C 16.4 °C 1015.8 hPa West 9.3 km/h 9.3 km/h 47 % 0.0 mm
13:52 29.5 °C 17.0 °C 1015.8 hPa SW 8.7 km/h 8.7 km/h 47 % 0.0 mm
13:57 28.3 °C 15.6 °C 1015.8 hPa South 7.4 km/h 7.4 km/h 46 % 0.0 mm
14:02 28.3 °C 15.9 °C 1014.8 hPa WSW 7.4 km/h 7.4 km/h 47 % 0.0 mm
14:07 28.2 °C 16.2 °C 1014.8 hPa ESE 9.5 km/h 9.5 km/h 48 % 0.0 mm
14:12 27.7 °C 16.0 °C 1014.8 hPa NNE 7.4 km/h 7.4 km/h 49 % 0.0 mm
14:17 28.0 °C 16.3 °C 1015.8 hPa ESE 6.1 km/h 6.1 km/h 49 % 0.0 mm
14:22 28.7 °C 16.9 °C 1015.8 hPa South 6.1 km/h 6.1 km/h 49 % 0.0 mm
14:23 28.7 °C 16.9 °C 1015.8 hPa South 7.6 km/h 7.6 km/h 49 % 0.0 mm
14:28 29.0 °C 16.9 °C 1015.8 hPa SSW 5.6 km/h 5.6 km/h 48 % 0.0 mm
14:33 29.7 °C 17.5 °C 1015.8 hPa SE 5.6 km/h 5.6 km/h 48 % 0.0 mm
14:38 29.9 °C 17.7 °C 1015.8 hPa West 5.6 km/h 5.6 km/h 48 % 0.0 mm
14:43 29.9 °C 17.4 °C 1015.8 hPa SE 6.4 km/h 6.4 km/h 47 % 0.0 mm
14:48 30.1 °C 17.2 °C 1015.8 hPa West 8.7 km/h 8.7 km/h 46 % 0.0 mm
14:53 29.8 °C 16.9 °C 1015.8 hPa South 11.1 km/h 11.1 km/h 46 % 0.0 mm
14:58 29.5 °C 15.9 °C 1015.8 hPa ESE 7.4 km/h 7.4 km/h 44 % 0.0 mm
15:03 28.2 °C 16.4 °C 1015.8 hPa ESE 9.3 km/h 9.3 km/h 49 % 0.0 mm
15:08 28.0 °C 16.6 °C 1015.8 hPa SE 9.3 km/h 9.3 km/h 50 % 0.0 mm
15:13 28.6 °C 16.8 °C 1015.8 hPa SSE 20.4 km/h 20.4 km/h 49 % 0.0 mm
15:18 29.2 °C 16.4 °C 1015.8 hPa South 3.7 km/h 3.7 km/h 46 % 0.0 mm
15:23 29.6 °C 16.4 °C 1015.8 hPa South 9.3 km/h 9.3 km/h 45 % 0.0 mm
15:28 29.2 °C 16.4 °C 1015.8 hPa NNE 9.3 km/h 9.3 km/h 46 % 0.0 mm
15:33 29.0 °C 16.2 °C 1015.8 hPa West 5.6 km/h 5.6 km/h 46 % 0.0 mm
15:38 29.5 °C 15.9 °C 1015.8 hPa SE 5.6 km/h 5.6 km/h 44 % 0.0 mm
15:43 29.5 °C 15.2 °C 1015.8 hPa SSE 5.6 km/h 5.6 km/h 42 % 0.0 mm
15:48 29.5 °C 15.6 °C 1015.8 hPa SSE 8.7 km/h 8.7 km/h 43 % 0.0 mm
15:53 28.7 °C 16.3 °C 1015.8 hPa ESE 9.3 km/h 9.3 km/h 47 % 0.0 mm
15:58 28.6 °C 16.2 °C 1015.8 hPa SSW 9.3 km/h 9.3 km/h 47 % 0.0 mm
16:03 28.2 °C 16.2 °C 1015.8 hPa NNE 5.6 km/h 5.6 km/h 48 % 0.0 mm
16:08 27.8 °C 16.1 °C 1015.8 hPa SE 14.8 km/h 14.8 km/h 49 % 0.0 mm
16:13 28.2 °C 15.8 °C 1015.8 hPa NW 11.1 km/h 11.1 km/h 47 % 0.0 mm
16:18 28.7 °C 15.9 °C 1015.8 hPa West 9.5 km/h 9.5 km/h 46 % 0.0 mm
16:23 28.7 °C 15.6 °C 1015.8 hPa SE 6.1 km/h 6.1 km/h 45 % 0.0 mm
16:28 28.0 °C 15.6 °C 1015.8 hPa SSE 13.0 km/h 13.0 km/h 47 % 0.0 mm
16:33 28.4 °C 16.3 °C 1015.8 hPa SW 9.3 km/h 9.3 km/h 48 % 0.0 mm
16:38 28.9 °C 16.1 °C 1015.8 hPa SSW 7.4 km/h 7.4 km/h 46 % 0.0 mm
16:43 29.0 °C 15.5 °C 1015.8 hPa East 9.3 km/h 9.3 km/h 44 % 0.0 mm
16:48 28.2 °C 15.8 °C 1015.8 hPa SSW 7.4 km/h 7.4 km/h 47 % 0.0 mm
16:53 28.5 °C 16.1 °C 1015.8 hPa South 5.6 km/h 5.6 km/h 47 % 0.0 mm
16:58 29.0 °C 15.9 °C 1015.8 hPa WSW 10.0 km/h 10.0 km/h 45 % 0.0 mm
16:59 29.0 °C 15.9 °C 1015.8 hPa SW 9.3 km/h 9.3 km/h 45 % 0.0 mm
17:04 29.1 °C 15.9 °C 1015.8 hPa SSW 14.8 km/h 14.8 km/h 45 % 0.0 mm
17:09 28.7 °C 15.9 °C 1015.8 hPa WSW 8.7 km/h 8.7 km/h 46 % 0.0 mm
17:14 28.3 °C 15.2 °C 1015.8 hPa SW 13.0 km/h 13.0 km/h 45 % 0.0 mm
17:19 28.3 °C 15.2 °C 1015.8 hPa West 5.6 km/h 5.6 km/h 45 % 0.0 mm
17:24 28.6 °C 15.5 °C 1015.8 hPa SSW 11.4 km/h 11.4 km/h 45 % 0.0 mm
17:29 28.3 °C 15.2 °C 1015.8 hPa West 5.8 km/h 5.8 km/h 45 % 0.0 mm
17:34 28.5 °C 15.4 °C 1015.8 hPa West 9.0 km/h 9.0 km/h 45 % 0.0 mm
17:39 28.1 °C 15.1 °C 1015.8 hPa SSE 11.1 km/h 11.1 km/h 45 % 0.0 mm
17:44 28.5 °C 15.4 °C 1015.8 hPa SW 9.5 km/h 9.5 km/h 45 % 0.0 mm
17:49 28.1 °C 15.1 °C 1015.8 hPa SW 9.3 km/h 9.3 km/h 45 % 0.0 mm
17:54 28.1 °C 15.1 °C 1015.8 hPa SW 13.0 km/h 13.0 km/h 45 % 0.0 mm
17:59 28.1 °C 14.7 °C 1015.8 hPa SW 7.6 km/h 7.6 km/h 44 % 0.0 mm
18:04 28.4 °C 15.3 °C 1014.8 hPa SW 5.6 km/h 5.6 km/h 45 % 0.0 mm
18:09 28.5 °C 15.4 °C 1014.8 hPa WSW 7.6 km/h 7.6 km/h 45 % 0.0 mm
18:14 28.4 °C 15.3 °C 1014.8 hPa SSE 9.3 km/h 9.3 km/h 45 % 0.0 mm
18:19 28.3 °C 15.2 °C 1014.8 hPa West 7.4 km/h 7.4 km/h 45 % 0.0 mm
18:24 28.2 °C 14.8 °C 1014.8 hPa West 5.6 km/h 5.6 km/h 44 % 0.0 mm
18:29 28.1 °C 14.7 °C 1014.8 hPa WSW 5.8 km/h 5.8 km/h 44 % 0.0 mm
18:34 27.8 °C 14.1 °C 1014.8 hPa North 4.7 km/h 4.7 km/h 43 % 0.0 mm
18:39 27.6 °C 14.2 °C 1014.8 hPa South 5.6 km/h 5.6 km/h 44 % 0.0 mm
18:44 27.4 °C 14.1 °C 1014.8 hPa WSW 7.4 km/h 7.4 km/h 44 % 0.0 mm
18:49 26.1 °C 13.2 °C 1014.8 hPa SE 11.1 km/h 11.1 km/h 45 % 0.0 mm
18:54 25.5 °C 12.7 °C 1014.8 hPa NE 16.7 km/h 16.7 km/h 45 % 0.0 mm
18:59 25.4 °C 12.9 °C 1014.8 hPa ENE 13.0 km/h 13.0 km/h 46 % 0.0 mm
19:04 25.1 °C 12.7 °C 1013.8 hPa NNW 5.6 km/h 5.6 km/h 46 % 0.0 mm
19:09 25.2 °C 13.1 °C 1013.8 hPa South 7.4 km/h 7.4 km/h 47 % 0.0 mm
19:14 25.7 °C 13.2 °C 1013.8 hPa SW 13.0 km/h 13.0 km/h 46 % 0.0 mm
19:16 25.9 °C 13.4 °C 1013.8 hPa WSW 13.0 km/h 13.0 km/h 46 % 0.0 mm
19:20 19.5 °C 14.7 °C 1018.8 hPa Calm   1.6 km/h 74 % 0.0 mm
19:21 25.8 °C 13.3 °C 1014.8 hPa SW 7.4 km/h 7.4 km/h 46 % 0.0 mm
19:26 25.9 °C 13.4 °C 1014.8 hPa SSW 5.6 km/h 5.6 km/h 46 % 0.0 mm
19:30 19.4 °C 14.7 °C 1017.8 hPa Calm     74 % 0.0 mm
19:31 26.0 °C 13.5 °C 1014.8 hPa South 5.6 km/h 5.6 km/h 46 % 0.0 mm
19:36 26.1 °C 13.6 °C 1014.8 hPa WSW 3.7 km/h 3.7 km/h 46 % 0.0 mm
19:40 19.2 °C 14.7 °C 1017.8 hPa Calm     75 % 0.0 mm
19:41 25.8 °C 12.9 °C 1014.8 hPa South 7.4 km/h 7.4 km/h 45 % 0.0 mm
19:46 25.3 °C 12.8 °C 1014.8 hPa WSW 3.7 km/h 3.7 km/h 46 % 0.0 mm
19:50 19.2 °C 14.7 °C 1017.8 hPa Calm     75 % 0.0 mm
19:51 25.4 °C 12.9 °C 1014.8 hPa SSW 5.6 km/h 5.6 km/h 46 % 0.0 mm
19:56 25.5 °C 13.1 °C 1014.8 hPa SW 3.7 km/h 3.7 km/h 46 % 0.0 mm
20:00 19.1 °C 14.6 °C 1017.8 hPa Calm     75 % 0.0 mm
20:01 25.3 °C 12.8 °C 1014.8 hPa SW 9.3 km/h 9.3 km/h 46 % 0.0 mm
20:06 25.0 °C 12.6 °C 1014.8 hPa ESE 3.7 km/h 3.7 km/h 46 % 0.0 mm
20:10 18.9 °C 14.6 °C 1017.8 hPa Calm     76 % 0.0 mm
20:11 24.9 °C 12.8 °C 1014.8 hPa SW 4.7 km/h 4.7 km/h 47 % 0.0 mm
20:16 24.6 °C 13.2 °C 1014.8 hPa NE 3.9 km/h 4.7 km/h 49 % 0.0 mm
20:20 18.8 °C 14.7 °C 1017.8 hPa Calm   1.6 km/h 77 % 0.0 mm
20:21 23.9 °C 13.2 °C 1014.8 hPa ENE 9.5 km/h 9.5 km/h 51 % 0.0 mm
20:26 23.5 °C 13.7 °C 1014.8 hPa East 11.1 km/h 11.1 km/h 54 % 0.0 mm
20:30 18.7 °C 14.6 °C 1017.8 hPa West 1.6 km/h 3.2 km/h 77 % 0.0 mm
20:31 23.3 °C 14.1 °C 1014.8 hPa ENE 7.4 km/h 7.4 km/h 56 % 0.0 mm
20:36 23.2 °C 14.2 °C 1015.8 hPa ESE 5.6 km/h 5.6 km/h 57 % 0.0 mm
20:40 18.5 °C 14.4 °C 1017.8 hPa Calm   3.2 km/h 77 % 0.0 mm
20:41 23.0 °C 14.3 °C 1015.8 hPa ESE 11.1 km/h 11.1 km/h 58 % 0.0 mm
20:46 22.7 °C 14.6 °C 1015.8 hPa ENE 9.3 km/h 9.3 km/h 60 % 0.0 mm
20:50 18.5 °C 14.6 °C 1017.8 hPa Calm   1.6 km/h 78 % 0.0 mm
20:51 22.6 °C 14.4 °C 1015.8 hPa East 9.3 km/h 9.3 km/h 60 % 0.0 mm
20:56 22.5 °C 14.6 °C 1015.8 hPa East 7.4 km/h 7.4 km/h 61 % 0.0 mm
21:00 18.3 °C 14.2 °C 1017.8 hPa East 1.6 km/h 1.6 km/h 77 % 0.0 mm
21:01 22.4 °C 14.5 °C 1015.8 hPa ESE 9.3 km/h 9.3 km/h 61 % 0.0 mm
21:06 22.3 °C 14.7 °C 1015.8 hPa East 5.6 km/h 5.6 km/h 62 % 0.0 mm
21:10 17.9 °C 13.8 °C 1017.8 hPa SSW 3.2 km/h 3.2 km/h 77 % 0.0 mm
21:11 22.2 °C 14.6 °C 1015.8 hPa SE 7.4 km/h 7.4 km/h 62 % 0.0 mm
21:16 22.2 °C 14.6 °C 1015.8 hPa ENE 6.1 km/h 6.1 km/h 62 % 0.0 mm
21:20 17.9 °C 14.0 °C 1017.8 hPa WSW 1.6 km/h 1.6 km/h 78 % 0.0 mm
21:21 22.0 °C 14.6 °C 1015.8 hPa East 5.6 km/h 5.8 km/h 63 % 0.0 mm
21:26 21.9 °C 14.8 °C 1015.8 hPa ENE 5.8 km/h 5.8 km/h 64 % 0.0 mm
21:30 17.8 °C 14.1 °C 1016.8 hPa Calm     79 % 0.0 mm
21:31 21.8 °C 14.9 °C 1015.8 hPa ESE 5.6 km/h 5.6 km/h 65 % 0.0 mm
21:36 21.7 °C 15.1 °C 1015.8 hPa ENE 5.6 km/h 5.6 km/h 66 % 0.0 mm
21:40 17.8 °C 14.1 °C 1017.8 hPa Calm     79 % 0.0 mm
21:41 21.6 °C 15.0 °C 1015.8 hPa NNE 6.9 km/h 6.9 km/h 66 % 0.0 mm
21:46 21.5 °C 15.1 °C 1015.8 hPa ESE 5.6 km/h 5.6 km/h 67 % 0.0 mm
21:50 17.8 °C 14.1 °C 1017.8 hPa Calm   1.6 km/h 79 % 0.0 mm
21:51 21.4 °C 15.0 °C 1014.8 hPa NE 7.4 km/h 7.4 km/h 67 % 0.0 mm
21:56 21.3 °C 14.9 °C 1014.8 hPa East 6.4 km/h 6.4 km/h 67 % 0.0 mm
22:00 17.6 °C 13.9 °C 1017.8 hPa Calm   1.6 km/h 79 % 0.0 mm
22:01 21.2 °C 15.1 °C 1014.8 hPa ENE 5.0 km/h 5.0 km/h 68 % 0.0 mm
22:06 21.2 °C 15.1 °C 1015.8 hPa NE 4.2 km/h 4.2 km/h 68 % 0.0 mm
22:10 17.5 °C 13.6 °C 1017.8 hPa WSW 3.2 km/h 3.2 km/h 78 % 0.0 mm
22:11 21.1 °C 15.2 °C 1015.8 hPa ENE 7.4 km/h 7.4 km/h 69 % 0.0 mm
22:16 21.1 °C 15.2 °C 1015.8 hPa NNE 3.9 km/h 3.9 km/h 69 % 0.0 mm
22:20 17.3 °C 13.6 °C 1017.8 hPa Calm   1.6 km/h 79 % 0.0 mm
22:21 21.0 °C 15.1 °C 1015.8 hPa NNE 4.7 km/h 4.7 km/h 69 % 0.0 mm
22:26 20.9 °C 15.0 °C 1015.8 hPa NNE 3.9 km/h 3.9 km/h 69 % 0.0 mm
22:30 17.0 °C 13.3 °C 1017.8 hPa Calm   3.2 km/h 79 % 0.0 mm
22:31 20.9 °C 15.0 °C 1015.8 hPa NNW 5.6 km/h 5.6 km/h 69 % 0.0 mm
22:36 20.8 °C 15.1 °C 1016.8 hPa North 3.7 km/h 3.7 km/h 70 % 0.0 mm
22:40 16.9 °C 13.4 °C 1017.8 hPa SW 3.2 km/h 3.2 km/h 80 % 0.0 mm
22:41 20.8 °C 15.1 °C 1016.8 hPa NE 3.7 km/h 3.7 km/h 70 % 0.0 mm
22:46 20.7 °C 15.1 °C 1016.8 hPa NNE 3.9 km/h 3.9 km/h 70 % 0.0 mm
22:50 16.6 °C 13.1 °C 1017.8 hPa WSW 3.2 km/h 4.8 km/h 80 % 0.0 mm
22:51 20.6 °C 14.9 °C 1017.8 hPa NNE 3.9 km/h 4.2 km/h 70 % 0.0 mm
22:56 20.6 °C 15.2 °C 1017.8 hPa NNE 5.6 km/h 5.6 km/h 71 % 0.0 mm
23:00 16.5 °C 13.2 °C 1017.8 hPa Calm   1.6 km/h 81 % 0.0 mm
23:01 20.5 °C 15.1 °C 1017.8 hPa NNE 7.4 km/h 7.4 km/h 71 % 0.0 mm
23:06 20.4 °C 15.2 °C 1017.8 hPa NE 5.6 km/h 5.6 km/h 72 % 0.0 mm
23:10 16.4 °C 13.1 °C 1017.8 hPa SW 1.6 km/h 3.2 km/h 81 % 0.0 mm
23:11 20.4 °C 15.2 °C 1017.8 hPa NE 4.7 km/h 4.7 km/h 72 % 0.0 mm
23:16 20.3 °C 15.1 °C 1017.8 hPa NNE 5.6 km/h 5.6 km/h 72 % 0.0 mm
23:20 16.4 °C 13.1 °C 1017.8 hPa SW 1.6 km/h 3.2 km/h 81 % 0.0 mm
23:21 20.3 °C 15.1 °C 1017.8 hPa NNE 3.7 km/h 3.9 km/h 72 % 0.0 mm
23:26 20.2 °C 15.0 °C 1017.8 hPa NNE 3.7 km/h 3.7 km/h 72 % 0.0 mm
23:30 16.5 °C 13.4 °C 1017.8 hPa Calm     82 % 0.0 mm
23:31 20.2 °C 15.0 °C 1017.8 hPa NE 4.7 km/h 4.7 km/h 72 % 0.0 mm
23:36 20.1 °C 14.9 °C 1017.8 hPa North 4.2 km/h 4.2 km/h 72 % 0.0 mm
23:40 16.7 °C 13.6 °C 1017.8 hPa Calm   1.6 km/h 82 % 0.0 mm
23:41 20.1 °C 14.9 °C 1017.8 hPa NE 5.6 km/h 5.6 km/h 72 % 0.0 mm
23:46 20.0 °C 14.8 °C 1017.8 hPa NNE 1.9 km/h   72 % 0.0 mm
23:50 16.8 °C 13.7 °C 1017.8 hPa Calm     82 % 0.0 mm
23:51 19.9 °C 14.9 °C 1017.8 hPa NNE 1.4 km/h   73 % 0.0 mm
23:56 19.8 °C 14.8 °C 1017.8 hPa North 3.7 km/h 3.7 km/h 73 % 0.0 mm
Meteo Sesrovires
Elogis d' Weather Underground - 3.75 mb

Guio original per  Jim McMurry - jmcmurry@mwt.net Adaptat per a la plantilla per  Wim van der Kuil - Leuven-Template.eu

Trobareu la nostra informacio del temps tambe a:

Weather Underground

AWEKAS